createdAt,value
2022-10-01T13:56:13.352Z,4988.00
2022-10-01T13:57:15.554Z,4712.00
2022-10-01T14:54:43.765Z,3924.00
2022-10-01T14:55:45.893Z,3456.00
2022-10-01T14:56:44.742Z,3096.00
2022-10-01T14:57:44.929Z,2868.00
2022-10-01T15:00:55.291Z,3064.00
2022-10-01T15:01:56.116Z,3144.00
2022-10-01T15:02:56.123Z,3156.00
2022-10-01T15:03:56.162Z,3112.00
2022-10-01T15:04:56.113Z,3004.00
2022-10-01T15:05:56.416Z,2812.00
2022-10-01T15:06:56.024Z,2564.00
2022-10-01T15:07:56.027Z,2296.00
2022-10-01T15:08:56.069Z,2108.00
2022-10-01T15:10:04.921Z,2128.00
2022-10-01T15:10:55.979Z,2356.00
2022-10-01T15:11:58.072Z,2652.00
2022-10-01T15:12:55.969Z,2860.00
2022-10-01T15:13:55.985Z,2844.00
2022-10-01T15:14:56.795Z,2580.00
2022-10-01T15:18:54.703Z,1924.00
2022-10-01T15:19:54.780Z,2036.00
2022-10-01T15:20:55.720Z,2248.00
2022-10-01T15:21:55.787Z,2620.00
2022-10-01T15:24:56.470Z,3636.00
2022-10-01T15:25:57.337Z,3844.00
2022-10-01T15:26:57.396Z,4120.00
2022-10-01T15:37:06.766Z,6148.00
2022-10-01T15:38:06.545Z,6680.00
2022-10-01T15:39:07.305Z,7080.00
2022-10-01T15:44:24.069Z,7536.00
2022-10-01T15:44:48.685Z,7340.00
2022-10-01T15:45:48.715Z,7532.00
2022-10-01T15:46:49.599Z,6964.00
2022-10-01T15:47:49.870Z,6788.00
2022-10-01T15:48:49.426Z,6632.00
2022-10-01T15:49:48.693Z,6608.00
2022-10-01T15:50:48.563Z,6688.00
2022-10-01T15:51:48.595Z,6864.00
2022-10-01T15:52:48.636Z,7100.00
2022-10-01T15:56:07.066Z,8728.00
2022-10-01T15:57:08.006Z,9048.00
2022-10-01T15:58:09.235Z,9124.00
2022-10-01T15:59:08.793Z,9208.00
2022-10-01T16:00:10.761Z,10424.00
2022-10-01T16:01:08.183Z,10720.00
2022-10-01T16:02:07.978Z,11028.00
2022-10-01T16:03:07.972Z,9492.00
2022-10-01T16:04:09.855Z,9208.00
2022-10-01T16:05:07.973Z,9256.00
2022-10-01T16:06:10.383Z,8984.00
2022-10-01T16:07:07.927Z,8568.00
2022-10-01T16:08:07.854Z,8600.00
2022-10-01T16:09:07.885Z,8440.00
2022-10-01T16:10:07.923Z,8668.00
2022-10-01T16:11:08.786Z,7900.00
2022-10-01T16:12:08.766Z,7528.00
2022-10-01T16:13:46.359Z,7580.00
2022-10-01T16:14:07.817Z,8024.00
2022-10-01T16:15:08.207Z,9168.00
2022-10-01T16:16:07.945Z,11224.00
2022-10-01T16:17:07.790Z,14752.00
2022-10-01T16:18:07.824Z,10068.00
2022-10-01T16:19:07.809Z,8600.00
2022-10-01T16:20:10.054Z,8312.00
2022-10-01T16:21:08.698Z,8280.00
2022-10-01T16:22:10.285Z,8204.00
2022-10-01T16:37:18.508Z,6800.00
2022-10-01T16:38:10.234Z,6428.00
2022-10-01T16:39:32.624Z,6084.00
2022-10-01T16:40:11.683Z,5916.00
2022-10-01T16:41:08.307Z,5824.00
2022-10-01T16:42:23.695Z,5784.00
2022-10-01T16:43:08.293Z,5768.00
2022-10-01T16:44:32.605Z,5744.00
2022-10-01T16:45:08.271Z,5544.00
2022-10-01T16:46:08.988Z,5064.00
2022-10-01T16:56:04.277Z,4724.00
2022-10-01T16:57:07.627Z,4960.00
2022-10-01T16:58:05.016Z,5084.00
2022-10-01T16:59:05.410Z,5052.00
2022-10-01T17:00:04.477Z,5104.00
2022-10-01T17:01:04.491Z,5352.00
2022-10-01T17:02:04.483Z,5604.00
2022-10-01T17:03:05.739Z,5772.00
2022-10-01T17:04:09.830Z,5756.00
2022-10-01T17:05:05.001Z,5600.00
2022-10-01T17:06:05.266Z,5436.00
2022-10-01T17:07:05.961Z,5292.00
2022-10-01T17:08:04.359Z,5036.00
2022-10-01T17:09:04.313Z,4780.00
2022-10-01T17:10:05.050Z,4716.00
2022-10-01T17:11:04.997Z,5032.00
2022-10-01T17:12:05.297Z,5420.00
2022-10-01T17:13:04.297Z,5600.00
2022-10-01T17:14:04.975Z,6152.00
2022-10-01T17:15:04.220Z,6108.00
2022-10-01T17:16:04.255Z,5964.00
2022-10-01T17:17:04.211Z,5476.00
2022-10-01T17:18:05.012Z,5864.00
2022-10-01T17:19:04.981Z,6816.00
2022-10-01T17:20:04.241Z,7376.00
2022-10-01T17:21:04.229Z,10860.00
2022-10-01T17:22:04.174Z,10240.00
2022-10-01T17:23:04.135Z,9868.00
2022-10-01T17:24:04.204Z,7456.00
2022-10-01T17:25:04.666Z,6556.00
2022-10-01T17:26:04.985Z,6452.00
2022-10-01T17:27:04.120Z,6884.00
2022-10-01T17:28:04.180Z,7436.00
2022-10-01T17:29:06.086Z,7988.00
2022-10-01T17:30:13.741Z,7264.00
2022-10-01T17:31:06.800Z,9284.00
2022-10-01T17:32:04.133Z,8432.00
2022-10-01T17:33:04.038Z,7636.00
2022-10-01T17:34:04.053Z,7044.00
2022-10-01T17:35:04.015Z,6988.00
2022-10-01T17:36:04.010Z,6752.00
2022-10-01T17:37:04.059Z,5976.00
2022-10-01T17:38:03.985Z,5608.00
2022-10-01T17:39:04.943Z,5524.00
2022-10-01T17:40:03.996Z,5728.00
2022-10-01T17:41:03.978Z,5624.00
2022-10-01T17:42:04.699Z,5628.00
2022-10-01T17:43:03.978Z,5728.00
2022-10-01T17:44:05.436Z,5720.00
2022-10-01T17:45:04.493Z,5444.00
2022-10-01T17:46:05.841Z,5208.00
2022-10-01T17:47:03.922Z,4972.00
2022-10-01T17:48:03.860Z,4716.00
2022-10-01T17:49:04.867Z,4520.00
2022-10-01T17:50:03.872Z,4412.00
2022-10-01T17:51:03.879Z,4312.00
2022-10-01T17:52:03.878Z,4180.00
2022-10-01T17:53:03.873Z,4048.00
2022-10-01T17:54:03.790Z,3924.00
2022-10-01T17:55:03.833Z,3808.00
2022-10-01T17:56:03.807Z,3752.00
2022-10-01T17:57:03.812Z,3796.00
2022-10-01T17:58:03.755Z,3896.00
2022-10-01T17:59:03.742Z,4000.00
2022-10-01T18:00:04.741Z,4052.00
2022-10-01T18:01:04.716Z,4064.00
2022-10-01T18:02:18.591Z,4048.00
2022-10-01T18:03:03.840Z,4004.00
2022-10-01T18:04:03.765Z,3960.00
2022-10-01T18:05:03.799Z,3928.00
2022-10-01T18:06:04.682Z,3896.00
2022-10-01T18:07:05.476Z,3928.00
2022-10-01T18:08:03.683Z,4000.00
2022-10-01T18:09:05.193Z,4052.00
2022-10-01T18:10:04.572Z,4156.00
2022-10-01T18:11:07.249Z,4756.00
2022-10-01T18:12:08.623Z,5928.00
2022-10-01T18:13:03.782Z,6616.00
2022-10-01T18:14:04.591Z,5356.00
2022-10-01T18:15:03.756Z,5160.00
2022-10-01T18:16:03.794Z,4656.00
2022-10-01T18:17:03.544Z,4316.00
2022-10-01T18:20:04.305Z,3696.00
2022-10-01T18:21:03.626Z,3620.00
2022-10-01T18:22:11.832Z,3604.00
2022-10-01T18:23:04.024Z,3728.00
2022-10-01T18:24:05.104Z,4416.00
2022-10-01T18:25:03.532Z,4100.00
2022-10-01T18:26:03.527Z,3864.00
2022-10-01T18:27:03.557Z,3924.00
2022-10-01T18:28:03.550Z,3880.00
2022-10-01T18:29:03.499Z,3684.00
2022-10-01T18:30:03.529Z,3468.00
2022-10-01T18:31:03.575Z,3268.00
2022-10-01T18:32:04.318Z,3236.00
2022-10-01T18:33:03.926Z,3216.00
2022-10-01T18:34:03.484Z,3256.00
2022-10-01T18:35:03.485Z,3260.00
2022-10-01T18:36:03.494Z,3180.00
2022-10-01T18:37:04.040Z,3040.00
2022-10-01T18:38:03.503Z,2924.00
2022-10-01T18:39:03.517Z,2840.00
2022-10-01T18:40:03.947Z,2788.00
2022-10-01T18:41:03.965Z,2768.00
2022-10-01T18:42:03.525Z,2780.00
2022-10-01T18:43:03.986Z,2868.00
2022-10-01T18:44:03.277Z,3548.00
2022-10-01T18:45:03.328Z,4468.00
2022-10-01T18:46:04.050Z,3180.00
2022-10-01T18:47:03.323Z,3044.00
2022-10-01T18:48:03.342Z,2884.00
2022-10-01T18:49:03.474Z,2752.00
2022-10-01T18:50:03.150Z,2628.00
2022-10-01T18:51:03.141Z,2532.00
2022-10-01T18:52:04.064Z,2444.00
2022-10-01T18:53:03.180Z,2344.00
2022-10-01T18:54:03.108Z,2224.00
2022-10-01T18:55:05.030Z,2160.00
2022-10-01T18:56:04.192Z,2152.00
2022-10-01T18:57:03.131Z,2152.00
2022-10-01T18:58:03.093Z,2136.00
2022-10-01T18:59:03.124Z,2080.00
2022-10-01T19:00:04.062Z,1996.00
2022-10-01T19:01:03.391Z,1884.00
2022-10-01T19:02:04.650Z,1792.00
2022-10-01T19:03:03.952Z,1732.00
2022-10-01T19:04:03.097Z,1688.00
2022-10-01T19:05:03.046Z,1648.00
2022-10-01T19:06:03.064Z,1604.00
2022-10-01T19:07:03.023Z,1572.00
2022-10-01T19:08:03.804Z,1560.00
2022-10-01T19:09:07.212Z,1540.00
2022-10-01T19:10:02.980Z,1516.00
2022-10-01T19:11:02.984Z,1512.00
2022-10-01T19:12:02.939Z,1508.00
2022-10-01T19:13:03.002Z,1476.00
2022-10-01T19:14:02.954Z,1468.00
2022-10-01T19:15:02.931Z,1468.00
2022-10-01T19:16:03.745Z,1464.00
2022-10-01T19:17:02.854Z,1428.00
2022-10-01T19:18:02.896Z,1360.00
2022-10-01T19:19:04.829Z,1272.00
2022-10-01T19:20:02.876Z,1200.00
2022-10-01T19:21:02.834Z,1168.00
2022-10-01T19:22:03.764Z,1164.00
2022-10-01T19:23:02.836Z,1204.00
2022-10-01T19:24:02.777Z,1252.00
2022-10-01T19:25:02.802Z,1304.00
2022-10-01T19:26:02.788Z,1324.00
2022-10-01T19:27:03.543Z,1316.00
2022-10-01T19:28:03.780Z,1340.00
2022-10-01T19:29:03.595Z,1436.00
2022-10-01T19:30:02.772Z,1492.00
2022-10-01T19:31:03.650Z,1436.00
2022-10-01T19:32:04.184Z,1340.00
2022-10-01T19:33:02.702Z,1264.00
2022-10-01T19:34:02.732Z,1208.00
2022-10-01T19:35:02.706Z,1200.00
2022-10-01T19:36:02.723Z,1232.00
2022-10-01T19:37:02.714Z,1304.00
2022-10-01T19:38:02.663Z,1460.00
2022-10-01T19:39:02.676Z,1640.00
2022-10-01T19:40:03.491Z,1844.00
2022-10-01T19:41:04.971Z,2032.00
2022-10-01T19:42:02.645Z,2164.00
2022-10-01T19:43:03.546Z,2088.00
2022-10-01T19:44:02.626Z,1948.00
2022-10-01T19:45:02.554Z,1796.00
2022-10-01T19:46:02.583Z,1768.00
2022-10-01T19:47:02.691Z,1812.00
2022-10-01T19:48:05.004Z,1884.00
2022-10-01T19:49:02.575Z,1776.00
2022-10-01T19:50:02.538Z,1752.00
2022-10-01T19:51:04.402Z,1704.00
2022-10-01T19:52:02.496Z,1720.00
2022-10-01T19:53:02.513Z,1780.00
2022-10-01T19:54:03.503Z,1832.00
2022-10-01T19:55:05.038Z,1816.00
2022-10-01T19:56:02.494Z,1864.00
2022-10-01T19:57:03.088Z,2032.00
2022-10-01T19:58:02.466Z,2396.00
2022-10-01T19:59:04.986Z,2312.00
2022-10-01T20:00:03.596Z,2080.00
2022-10-01T20:01:02.423Z,1924.00
2022-10-01T20:02:03.685Z,1956.00
2022-10-01T20:03:02.365Z,1912.00
2022-10-01T20:04:02.348Z,1756.00
2022-10-01T20:05:03.854Z,1476.00
2022-10-01T20:06:01.343Z,1284.00
2022-10-01T20:07:03.078Z,1132.00
2022-10-01T20:08:02.317Z,1020.00
2022-10-01T20:09:02.339Z,948.00
2022-10-01T20:10:05.630Z,904.00
2022-10-01T20:11:02.321Z,884.00
2022-10-01T20:12:03.061Z,860.00
2022-10-01T20:13:02.330Z,852.00
2022-10-01T20:14:02.958Z,860.00
2022-10-01T20:15:02.301Z,856.00
2022-10-01T20:16:02.314Z,840.00
2022-10-01T20:17:02.221Z,780.00
2022-10-01T20:18:02.202Z,660.00
2022-10-01T20:19:02.260Z,548.00
2022-10-01T20:20:07.586Z,468.00
2022-10-01T20:21:02.141Z,448.00
2022-10-01T20:22:02.158Z,428.00
2022-10-01T20:23:03.862Z,392.00
2022-10-01T20:24:02.127Z,372.00
2022-10-01T20:25:03.045Z,348.00
2022-10-01T20:26:02.157Z,320.00
2022-10-01T20:27:02.113Z,292.00
2022-10-01T20:28:02.120Z,288.00
2022-10-01T20:29:02.100Z,292.00
2022-10-01T20:30:02.057Z,300.00
2022-10-01T20:31:03.045Z,308.00
2022-10-01T20:32:02.050Z,324.00
2022-10-01T20:33:02.027Z,316.00
2022-10-01T20:34:02.064Z,312.00
2022-10-01T20:35:06.504Z,292.00
2022-10-01T20:36:02.015Z,284.00
2022-10-01T20:37:04.262Z,272.00
2022-10-01T20:38:02.713Z,256.00
2022-10-01T20:39:02.014Z,236.00
2022-10-01T20:40:01.956Z,212.00
2022-10-01T20:41:01.937Z,196.00
2022-10-01T20:42:01.933Z,192.00
2022-10-01T20:43:01.962Z,176.00
2022-10-01T20:44:01.926Z,164.00
2022-10-01T20:45:01.840Z,144.00
2022-10-01T20:46:01.913Z,132.00
2022-10-01T20:47:01.875Z,116.00
2022-10-01T20:48:01.871Z,112.00
2022-10-01T20:49:02.773Z,104.00
2022-10-01T20:50:08.829Z,100.00
2022-10-01T20:51:04.654Z,96.00
2022-10-01T20:52:06.316Z,92.00
2022-10-01T20:53:03.918Z,88.00
2022-10-01T20:54:02.614Z,84.00
2022-10-01T20:55:02.074Z,76.00
2022-10-01T20:56:01.742Z,72.00
2022-10-01T20:57:07.119Z,64.00
2022-10-01T20:58:01.828Z,60.00
2022-10-01T20:59:01.701Z,52.00
2022-10-01T21:00:02.723Z,40.00
2022-10-01T21:01:03.639Z,32.00
2022-10-01T21:02:02.859Z,28.00
2022-10-01T21:03:02.554Z,24.00
2022-10-01T21:04:25.941Z,24.00
2022-10-01T21:05:01.670Z,24.00
2022-10-01T21:06:01.721Z,16.00
2022-10-01T21:07:03.634Z,16.00
2022-10-01T21:08:03.335Z,12.00
2022-10-01T21:09:01.633Z,12.00
2022-10-01T21:10:03.173Z,12.00
2022-10-01T21:11:02.322Z,8.00
2022-10-01T21:12:05.250Z,8.00
2022-10-01T21:13:01.612Z,4.00
2022-10-01T21:14:02.102Z,8.00
2022-10-01T21:15:01.546Z,4.00
2022-10-01T21:16:01.607Z,4.00
2022-10-01T21:17:01.564Z,4.00
2022-10-01T21:18:01.527Z,4.00
2022-10-01T21:19:03.079Z,0.00
2022-10-01T21:20:01.559Z,4.00
